createdAt,value
2022-10-17T00:00:39.304Z,13.27
2022-10-17T00:03:09.184Z,13.52
2022-10-17T00:05:42.921Z,11.68
2022-10-17T00:10:45.302Z,13.00
2022-10-17T00:13:15.317Z,13.15
2022-10-17T00:15:46.934Z,16.25
2022-10-17T00:18:17.080Z,15.40
2022-10-17T00:20:47.325Z,13.65
2022-10-17T00:23:17.420Z,15.32
2022-10-17T00:25:50.448Z,13.10
2022-10-17T00:28:20.717Z,15.48
2022-10-17T00:30:58.588Z,12.73
2022-10-17T00:33:28.271Z,15.60
2022-10-17T00:36:07.997Z,12.68
2022-10-17T00:38:38.113Z,17.20
2022-10-17T00:41:12.247Z,16.45
2022-10-17T00:43:56.625Z,16.98
2022-10-17T00:46:28.247Z,15.55
2022-10-17T00:49:00.121Z,15.75
2022-10-17T00:51:35.750Z,17.17
2022-10-17T00:54:06.587Z,14.15
2022-10-17T00:56:40.490Z,16.98
2022-10-17T00:59:11.993Z,16.35
2022-10-17T01:01:42.893Z,14.90
2022-10-17T01:04:12.891Z,17.20
2022-10-17T01:06:42.511Z,16.08
2022-10-17T01:09:12.269Z,16.67
2022-10-17T01:11:53.548Z,19.80
2022-10-17T01:14:32.642Z,17.23
2022-10-17T01:17:13.336Z,16.65
2022-10-17T01:20:09.486Z,18.90
2022-10-17T01:22:46.950Z,18.15
2022-10-17T01:25:32.287Z,17.30
2022-10-17T01:28:22.240Z,18.25
2022-10-17T01:31:00.410Z,15.95
2022-10-17T01:33:46.985Z,17.55
2022-10-17T01:36:27.375Z,18.42
2022-10-17T01:39:05.147Z,23.65
2022-10-17T01:41:41.269Z,20.13
2022-10-17T01:44:16.067Z,22.55
2022-10-17T01:46:52.384Z,21.15
2022-10-17T01:49:26.760Z,17.23
2022-10-17T01:52:01.944Z,17.80
2022-10-17T01:54:36.956Z,17.73
2022-10-17T01:57:11.245Z,19.15
2022-10-17T01:59:44.411Z,17.60
2022-10-17T02:02:18.776Z,18.90
2022-10-17T02:04:49.921Z,18.40
2022-10-17T02:07:19.589Z,18.30
2022-10-17T02:09:49.222Z,19.80
2022-10-17T02:12:39.101Z,20.40
2022-10-17T02:15:32.589Z,18.55
2022-10-17T02:18:18.616Z,18.80
2022-10-17T02:20:55.695Z,18.95
2022-10-17T02:23:34.436Z,19.98
2022-10-17T02:26:10.375Z,24.27
2022-10-17T02:28:46.048Z,17.95
2022-10-17T02:31:19.661Z,21.55
2022-10-17T02:33:57.442Z,17.80
2022-10-17T02:36:32.325Z,20.77
2022-10-17T02:39:04.420Z,22.42
2022-10-17T02:41:35.861Z,21.95
2022-10-17T02:44:07.745Z,21.05
2022-10-17T02:46:44.486Z,18.67
2022-10-17T02:49:21.781Z,21.20
2022-10-17T02:51:58.794Z,20.08
2022-10-17T02:54:36.789Z,19.73
2022-10-17T02:57:12.742Z,18.77
2022-10-17T02:59:45.236Z,17.55
2022-10-17T03:02:15.094Z,21.02
2022-10-17T03:04:49.394Z,21.45
2022-10-17T03:07:19.052Z,21.58
2022-10-17T03:09:48.647Z,19.73
2022-10-17T03:12:18.371Z,18.25
2022-10-17T03:14:48.103Z,18.15
2022-10-17T03:17:17.682Z,19.40
2022-10-17T03:19:49.872Z,21.88
2022-10-17T03:22:19.378Z,18.95
2022-10-17T03:24:49.114Z,18.05
2022-10-17T03:27:18.762Z,18.67
2022-10-17T03:29:48.417Z,17.30
2022-10-17T03:32:17.985Z,15.82
2022-10-17T03:34:50.128Z,16.70
2022-10-17T03:37:19.801Z,18.17
2022-10-17T03:39:49.389Z,15.18
2022-10-17T03:42:19.000Z,18.95
2022-10-17T03:44:48.557Z,17.13
2022-10-17T03:47:18.309Z,16.90
2022-10-17T03:49:51.134Z,21.48
2022-10-17T03:52:21.231Z,18.10
2022-10-17T03:54:52.460Z,16.30
2022-10-17T03:57:22.558Z,15.60
2022-10-17T03:59:53.976Z,14.90
2022-10-17T04:02:23.605Z,19.00
2022-10-17T04:04:55.869Z,15.82
2022-10-17T04:10:16.049Z,20.52
2022-10-17T04:12:45.767Z,18.73
2022-10-17T04:15:15.459Z,19.55
2022-10-17T04:17:45.046Z,16.27
2022-10-17T04:20:17.378Z,20.13
2022-10-17T04:22:46.967Z,16.10
2022-10-17T04:25:16.855Z,16.33
2022-10-17T04:27:46.568Z,13.82
2022-10-17T04:30:16.152Z,19.40
2022-10-17T04:32:45.937Z,18.20
2022-10-17T04:35:18.245Z,16.83
2022-10-17T04:37:47.956Z,13.43
2022-10-17T04:40:17.662Z,15.02
2022-10-17T04:42:47.247Z,15.32
2022-10-17T04:45:16.888Z,16.65
2022-10-17T04:47:46.507Z,15.32
2022-10-17T04:50:18.768Z,16.35
2022-10-17T04:52:48.452Z,17.60
2022-10-17T04:55:18.257Z,17.60
2022-10-17T04:57:47.903Z,14.02
2022-10-17T05:00:18.246Z,16.35
2022-10-17T05:02:47.934Z,17.73
2022-10-17T05:05:20.421Z,16.08
2022-10-17T05:07:50.249Z,15.73
2022-10-17T05:10:20.036Z,18.77
2022-10-17T05:12:50.610Z,15.35
2022-10-17T05:15:20.395Z,13.48
2022-10-17T05:17:50.650Z,14.30
2022-10-17T05:20:23.342Z,13.95
2022-10-17T05:22:53.806Z,14.25
2022-10-17T05:25:24.451Z,15.30
2022-10-17T05:27:54.279Z,17.38
2022-10-17T05:30:24.495Z,17.27
2022-10-17T05:32:56.279Z,17.20
2022-10-17T05:35:28.517Z,13.95
2022-10-17T05:37:58.238Z,14.32
2022-10-17T05:40:28.463Z,17.88
2022-10-17T05:42:58.465Z,17.10
2022-10-17T05:45:28.797Z,16.08
2022-10-17T05:47:58.870Z,15.85
2022-10-17T05:50:31.806Z,14.00
2022-10-17T05:53:01.512Z,14.85
2022-10-17T05:55:31.502Z,14.35
2022-10-17T05:58:03.391Z,17.23
2022-10-17T06:00:33.161Z,14.18
2022-10-17T06:03:02.960Z,15.52
2022-10-17T06:05:37.819Z,15.23
2022-10-17T06:08:07.738Z,16.58
2022-10-17T06:10:37.310Z,17.25
2022-10-17T06:13:07.079Z,17.15
2022-10-17T06:15:36.762Z,13.68
2022-10-17T06:18:06.602Z,19.77
2022-10-17T06:20:43.853Z,18.70
2022-10-17T06:23:15.834Z,16.13
2022-10-17T06:25:45.397Z,14.95
2022-10-17T06:28:15.078Z,15.40
2022-10-17T06:30:48.206Z,15.70
2022-10-17T06:33:18.095Z,13.52
2022-10-17T06:35:54.106Z,15.00
2022-10-17T06:38:23.960Z,19.73
2022-10-17T06:40:54.151Z,17.88
2022-10-17T06:43:27.776Z,17.17
2022-10-17T06:48:50.236Z,18.60
2022-10-17T06:51:22.436Z,24.23
2022-10-17T06:53:52.037Z,17.00
2022-10-17T06:56:21.659Z,19.98
2022-10-17T06:58:51.463Z,21.92
2022-10-17T07:01:21.222Z,19.45
2022-10-17T07:03:52.420Z,17.23
2022-10-17T07:06:25.100Z,19.92
2022-10-17T07:08:55.757Z,18.23
2022-10-17T07:11:28.665Z,20.00
2022-10-17T07:13:58.486Z,20.63
2022-10-17T07:16:28.194Z,19.02
2022-10-17T07:18:58.629Z,18.33
2022-10-17T07:21:34.061Z,17.77
2022-10-17T07:24:07.259Z,19.98
2022-10-17T07:26:36.902Z,17.30
2022-10-17T07:29:06.912Z,15.88
2022-10-17T07:31:37.147Z,18.15
2022-10-17T07:34:10.102Z,19.25
2022-10-17T07:36:42.377Z,20.52
2022-10-17T07:39:12.187Z,18.42
2022-10-17T07:41:41.929Z,18.58
2022-10-17T07:44:11.700Z,18.17
2022-10-17T07:46:41.271Z,18.13
2022-10-17T07:49:10.861Z,15.43
2022-10-17T07:51:43.291Z,20.02
2022-10-17T07:54:14.031Z,21.33
2022-10-17T07:56:43.670Z,16.75
2022-10-17T07:59:13.286Z,16.13
2022-10-17T08:01:42.833Z,19.90
2022-10-17T08:04:12.452Z,17.05
2022-10-17T08:06:44.737Z,18.80
2022-10-17T08:09:14.402Z,18.88
2022-10-17T08:11:44.541Z,18.90
2022-10-17T08:14:14.901Z,17.45
2022-10-17T08:16:44.508Z,18.15
2022-10-17T08:19:14.115Z,17.33
2022-10-17T08:21:47.152Z,16.25
2022-10-17T08:24:17.618Z,16.80
2022-10-17T08:26:49.570Z,18.83
2022-10-17T08:29:21.405Z,16.17
2022-10-17T08:31:54.112Z,18.55
2022-10-17T08:34:28.229Z,17.27
2022-10-17T08:37:00.463Z,15.82
2022-10-17T08:39:30.271Z,18.30
2022-10-17T08:42:16.231Z,17.65
2022-10-17T08:44:58.014Z,15.57
2022-10-17T08:47:36.716Z,17.35
2022-10-17T08:50:08.857Z,15.23
2022-10-17T08:52:47.977Z,16.33
2022-10-17T08:58:17.091Z,21.58
2022-10-17T09:01:01.878Z,16.67
2022-10-17T09:03:54.276Z,17.92
2022-10-17T09:06:30.494Z,20.58
2022-10-17T09:09:18.939Z,17.50
2022-10-17T09:11:59.488Z,19.45
2022-10-17T09:14:46.402Z,18.55
2022-10-17T09:17:27.616Z,18.75
2022-10-17T09:20:04.476Z,15.50
2022-10-17T09:22:41.439Z,17.35
2022-10-17T09:25:18.614Z,20.52
2022-10-17T09:27:51.078Z,19.70
2022-10-17T09:30:47.209Z,18.40
2022-10-17T09:33:28.804Z,19.50
2022-10-17T09:36:07.733Z,15.68
2022-10-17T09:38:43.323Z,18.38
2022-10-17T09:44:19.938Z,19.25
2022-10-17T09:47:07.107Z,17.45
2022-10-17T09:49:38.870Z,14.02
2022-10-17T09:52:14.672Z,17.40
2022-10-17T09:54:47.874Z,16.83
2022-10-17T09:57:21.972Z,18.08
2022-10-17T10:00:00.846Z,17.15
2022-10-17T10:02:36.502Z,17.58
2022-10-17T10:05:11.387Z,16.42
2022-10-17T10:07:42.107Z,16.73
2022-10-17T10:10:28.219Z,14.68
2022-10-17T10:13:20.568Z,18.48
2022-10-17T10:15:51.580Z,9.98
2022-10-17T10:18:32.991Z,8.70
2022-10-17T10:21:24.301Z,12.20
2022-10-17T10:24:08.196Z,12.88
2022-10-17T10:26:42.079Z,17.20
2022-10-17T10:29:26.768Z,14.68
2022-10-17T10:31:56.727Z,11.35
2022-10-17T10:34:30.495Z,11.35
2022-10-17T10:37:04.697Z,10.35
2022-10-17T10:39:43.352Z,15.18
2022-10-17T10:42:24.707Z,13.05
2022-10-17T10:45:02.832Z,11.68
2022-10-17T10:47:34.453Z,12.13
2022-10-17T10:50:20.852Z,11.88
2022-10-17T10:55:39.738Z,8.05
2022-10-17T10:58:24.459Z,8.65
2022-10-17T11:00:58.376Z,7.45
2022-10-17T11:03:34.724Z,8.43
2022-10-17T11:06:09.013Z,8.10
2022-10-17T11:08:46.384Z,7.45
2022-10-17T11:11:23.989Z,6.93
2022-10-17T11:14:01.902Z,6.88
2022-10-17T11:16:39.990Z,8.88
2022-10-17T11:19:16.314Z,7.13
2022-10-17T11:21:52.892Z,9.50
2022-10-17T11:24:27.186Z,8.43
2022-10-17T11:27:01.660Z,10.85
2022-10-17T11:29:33.323Z,8.82
2022-10-17T11:32:11.352Z,10.43
2022-10-17T11:34:45.576Z,11.48
2022-10-17T11:37:20.333Z,12.15
2022-10-17T11:39:56.007Z,14.65
2022-10-17T11:42:32.136Z,11.80
2022-10-17T11:45:07.723Z,12.57
2022-10-17T11:47:47.386Z,12.02
2022-10-17T11:53:20.252Z,13.48
2022-10-17T11:55:50.702Z,15.02
2022-10-17T11:58:35.976Z,15.50
2022-10-17T12:01:16.250Z,17.77
2022-10-17T12:04:04.793Z,16.25
2022-10-17T12:06:49.729Z,9.88
2022-10-17T12:09:27.873Z,11.27
2022-10-17T12:12:00.618Z,10.35
2022-10-17T12:14:47.507Z,9.25
2022-10-17T12:17:34.033Z,9.35
2022-10-17T12:20:31.786Z,8.95
2022-10-17T12:23:07.426Z,8.63
2022-10-17T12:28:16.754Z,8.35
2022-10-17T12:30:59.036Z,9.93
2022-10-17T12:33:35.973Z,7.53
2022-10-17T12:36:47.811Z,8.15
2022-10-17T12:39:47.225Z,6.90
2022-10-17T12:42:47.501Z,8.77
2022-10-17T12:45:48.598Z,10.73
2022-10-17T12:48:48.171Z,9.07
2022-10-17T12:51:35.385Z,9.50
2022-10-17T12:54:15.199Z,13.45
2022-10-17T12:56:47.109Z,9.63
2022-10-17T12:59:24.179Z,11.10
2022-10-17T13:01:58.561Z,12.88
2022-10-17T13:04:30.231Z,8.88
2022-10-17T13:07:01.964Z,9.35
2022-10-17T13:09:34.408Z,11.63
2022-10-17T13:12:09.014Z,9.93
2022-10-17T13:14:43.815Z,9.80
2022-10-17T13:17:25.878Z,10.38
2022-10-17T13:19:55.581Z,7.90
2022-10-17T13:22:27.669Z,9.50
2022-10-17T13:25:11.381Z,9.20
2022-10-17T13:27:40.908Z,10.48
2022-10-17T13:30:32.086Z,8.90
2022-10-17T13:33:02.872Z,9.15
2022-10-17T13:35:58.840Z,8.77
2022-10-17T13:38:28.939Z,9.73
2022-10-17T13:41:10.817Z,7.18
2022-10-17T13:43:48.983Z,8.05
2022-10-17T13:46:37.206Z,13.05
2022-10-17T13:49:15.669Z,12.57
2022-10-17T13:51:47.692Z,9.60
2022-10-17T13:54:21.741Z,8.43
2022-10-17T13:56:58.878Z,10.80
2022-10-17T13:59:35.391Z,9.23
2022-10-17T14:02:12.677Z,12.18
2022-10-17T14:05:11.828Z,11.48
2022-10-17T14:08:05.441Z,11.70
2022-10-17T14:10:30.369Z,8.05
2022-10-17T14:13:01.588Z,9.55
2022-10-17T14:15:33.448Z,9.88
2022-10-17T14:18:08.487Z,8.00
2022-10-17T14:23:35.210Z,10.45
2022-10-17T14:26:11.000Z,9.27
2022-10-17T14:28:41.417Z,8.55
2022-10-17T14:31:21.494Z,13.13
2022-10-17T14:33:55.307Z,7.50
2022-10-17T14:36:35.105Z,9.98
2022-10-17T14:39:11.872Z,10.38
2022-10-17T14:41:47.092Z,7.65
2022-10-17T14:44:23.419Z,8.55
2022-10-17T14:46:57.919Z,7.13
2022-10-17T14:49:40.428Z,8.10
2022-10-17T14:52:29.370Z,8.45
2022-10-17T14:55:01.413Z,6.30
2022-10-17T14:57:43.722Z,8.60
2022-10-17T15:00:17.928Z,10.60
2022-10-17T15:02:48.534Z,5.95
2022-10-17T15:05:23.126Z,9.18
2022-10-17T15:07:52.730Z,7.72
2022-10-17T15:10:35.184Z,8.18
2022-10-17T15:15:56.125Z,8.68
2022-10-17T15:18:25.827Z,12.98
2022-10-17T15:21:05.088Z,9.63
2022-10-17T15:23:36.425Z,7.70
2022-10-17T15:26:06.348Z,11.48
2022-10-17T15:28:36.038Z,10.75
2022-10-17T15:31:05.762Z,9.18
2022-10-17T15:33:35.278Z,8.00
2022-10-17T15:36:08.429Z,8.52
2022-10-17T15:38:41.089Z,13.60
2022-10-17T15:41:12.332Z,8.33
2022-10-17T15:43:41.988Z,8.20
2022-10-17T15:46:21.332Z,7.72
2022-10-17T15:48:51.461Z,9.45
2022-10-17T15:51:24.613Z,10.40
2022-10-17T15:53:54.214Z,7.18
2022-10-17T15:56:26.315Z,9.85
2022-10-17T15:58:56.419Z,7.95
2022-10-17T16:01:27.865Z,7.80
2022-10-17T16:03:57.935Z,8.50
2022-10-17T16:06:30.593Z,8.10
2022-10-17T16:09:00.695Z,6.17
2022-10-17T16:11:36.140Z,9.73
2022-10-17T16:14:10.721Z,11.70
2022-10-17T16:16:40.657Z,6.88
2022-10-17T16:19:11.086Z,8.00
2022-10-17T16:21:44.260Z,8.02
2022-10-17T16:24:14.733Z,7.47
2022-10-17T16:26:44.352Z,6.93
2022-10-17T16:29:14.050Z,10.95
2022-10-17T16:31:46.094Z,6.53
2022-10-17T16:34:16.784Z,6.68
2022-10-17T16:36:49.065Z,4.32
2022-10-17T16:39:18.751Z,6.60
2022-10-17T16:41:48.291Z,6.22
2022-10-17T16:44:18.045Z,6.20
2022-10-17T16:46:47.624Z,7.15
2022-10-17T16:49:18.359Z,7.13
2022-10-17T16:51:50.628Z,5.95
2022-10-17T16:54:20.486Z,5.80
2022-10-17T16:56:50.521Z,7.38
2022-10-17T16:59:20.145Z,7.47
2022-10-17T17:01:49.852Z,9.23
2022-10-17T17:04:19.732Z,8.38
2022-10-17T17:06:51.971Z,7.70
2022-10-17T17:09:21.603Z,5.57
2022-10-17T17:11:51.314Z,6.53
2022-10-17T17:14:20.969Z,8.93
2022-10-17T17:16:50.553Z,7.00
2022-10-17T17:19:20.547Z,6.10
2022-10-17T17:21:52.824Z,9.65
2022-10-17T17:24:24.135Z,8.52
2022-10-17T17:26:55.622Z,9.80
2022-10-17T17:29:26.171Z,7.18
2022-10-17T17:31:56.614Z,7.20
2022-10-17T17:34:26.185Z,7.07
2022-10-17T17:36:58.441Z,8.45
2022-10-17T17:39:28.044Z,8.35
2022-10-17T17:41:57.781Z,8.57
2022-10-17T17:44:27.438Z,10.07
2022-10-17T17:46:56.967Z,6.45
2022-10-17T17:49:26.718Z,10.13
2022-10-17T17:51:59.045Z,7.07
2022-10-17T17:54:28.717Z,8.93
2022-10-17T17:56:58.548Z,8.48
2022-10-17T17:59:28.222Z,10.20
2022-10-17T18:01:57.948Z,6.60
2022-10-17T18:04:28.276Z,10.43
2022-10-17T18:07:00.727Z,8.02
2022-10-17T18:09:30.474Z,12.45
2022-10-17T18:12:00.177Z,9.38
2022-10-17T18:14:29.923Z,9.48
2022-10-17T18:16:59.608Z,7.63
2022-10-17T18:19:29.191Z,10.88
2022-10-17T18:22:01.613Z,8.43
2022-10-17T18:24:31.271Z,9.02
2022-10-17T18:27:01.781Z,11.57
2022-10-17T18:29:32.863Z,10.15
2022-10-17T18:32:02.764Z,9.65
2022-10-17T18:34:32.338Z,12.18
2022-10-17T18:37:05.089Z,11.45
2022-10-17T18:39:34.704Z,11.38
2022-10-17T18:42:04.511Z,12.98
2022-10-17T18:44:34.182Z,12.25
2022-10-17T18:47:04.437Z,13.40
2022-10-17T18:49:34.324Z,14.55
2022-10-17T18:52:06.803Z,14.27
2022-10-17T18:54:36.445Z,13.52
2022-10-17T18:57:06.436Z,17.58
2022-10-17T18:59:36.259Z,11.50
2022-10-17T19:02:06.532Z,11.60
2022-10-17T19:04:36.288Z,13.20
2022-10-17T19:07:08.510Z,14.07
2022-10-17T19:09:38.126Z,14.10
2022-10-17T19:12:08.065Z,13.30
2022-10-17T19:14:38.549Z,10.18
2022-10-17T19:17:08.280Z,12.65
2022-10-17T19:19:38.025Z,13.52
2022-10-17T19:22:10.336Z,13.18
2022-10-17T19:24:40.155Z,12.95
2022-10-17T19:27:10.664Z,15.00
2022-10-17T19:29:43.562Z,11.73
2022-10-17T19:32:16.771Z,18.58
2022-10-17T19:34:48.910Z,13.27
2022-10-17T19:37:21.150Z,12.82
2022-10-17T19:39:51.606Z,16.73
2022-10-17T19:42:21.214Z,19.67
2022-10-17T19:44:50.901Z,19.13
2022-10-17T19:47:20.785Z,18.23
2022-10-17T19:49:50.509Z,18.35
2022-10-17T19:52:22.860Z,19.15
2022-10-17T19:54:52.383Z,16.52
2022-10-17T19:57:22.014Z,16.45
2022-10-17T19:59:55.115Z,16.55
2022-10-17T20:02:26.128Z,21.50
2022-10-17T20:05:13.864Z,19.42
2022-10-17T20:07:48.979Z,15.70
2022-10-17T20:10:19.140Z,17.90
2022-10-17T20:12:48.966Z,18.35
2022-10-17T20:15:19.199Z,16.08
2022-10-17T20:17:48.843Z,15.25
2022-10-17T20:20:18.769Z,16.35
2022-10-17T20:22:51.282Z,15.50
2022-10-17T20:25:20.987Z,20.65
2022-10-17T20:27:50.777Z,18.95
2022-10-17T20:30:20.490Z,15.30
2022-10-17T20:32:55.070Z,25.30
2022-10-17T20:35:25.475Z,21.70
2022-10-17T20:37:57.708Z,16.88
2022-10-17T20:40:35.056Z,19.83
2022-10-17T20:43:05.464Z,18.95
2022-10-17T20:45:51.219Z,17.58
2022-10-17T20:48:21.903Z,16.67
2022-10-17T20:50:51.990Z,17.90
2022-10-17T20:56:04.603Z,20.50
2022-10-17T20:58:34.194Z,20.48
2022-10-17T21:01:09.038Z,17.67
2022-10-17T21:03:42.449Z,15.55
2022-10-17T21:06:15.857Z,18.58
2022-10-17T21:08:49.831Z,17.70
2022-10-17T21:11:21.086Z,17.65
2022-10-17T21:13:56.392Z,18.27
2022-10-17T21:16:26.464Z,16.85
2022-10-17T21:18:56.353Z,17.92
2022-10-17T21:21:27.872Z,21.17
2022-10-17T21:24:01.895Z,15.85
2022-10-17T21:26:32.748Z,15.45
2022-10-17T21:29:05.819Z,17.08
2022-10-17T21:31:39.096Z,19.70
2022-10-17T21:34:10.471Z,20.48
2022-10-17T21:36:40.113Z,18.23
2022-10-17T21:39:14.425Z,20.90
2022-10-17T21:41:45.324Z,19.20
2022-10-17T21:44:17.993Z,23.08
2022-10-17T21:46:49.660Z,22.50
2022-10-17T21:49:21.813Z,16.25
2022-10-17T21:51:52.566Z,16.77
2022-10-17T21:54:25.845Z,23.05
2022-10-17T21:56:55.465Z,17.10
2022-10-17T21:59:25.061Z,16.20
2022-10-17T22:01:54.738Z,19.13
2022-10-17T22:04:24.291Z,15.85
2022-10-17T22:06:54.015Z,14.23
2022-10-17T22:09:28.629Z,17.25
2022-10-17T22:11:59.655Z,21.02
2022-10-17T22:14:30.192Z,15.23
2022-10-17T22:17:01.548Z,15.20
2022-10-17T22:19:32.686Z,15.82
2022-10-17T22:22:04.757Z,15.82
2022-10-17T22:24:37.118Z,15.23
2022-10-17T22:27:06.799Z,16.52
2022-10-17T22:29:36.545Z,17.67
2022-10-17T22:32:06.399Z,13.55
2022-10-17T22:34:36.008Z,20.70
2022-10-17T22:37:05.743Z,18.42
2022-10-17T22:39:38.712Z,14.35
2022-10-17T22:42:08.205Z,15.23
2022-10-17T22:44:38.028Z,14.48
2022-10-17T22:47:07.641Z,14.85
2022-10-17T22:49:37.276Z,17.88
2022-10-17T22:52:07.328Z,15.85
2022-10-17T22:54:39.491Z,13.25
2022-10-17T22:57:09.179Z,14.95
2022-10-17T22:59:38.814Z,18.70
2022-10-17T23:02:08.638Z,16.65
2022-10-17T23:04:38.411Z,15.45
2022-10-17T23:07:12.550Z,16.27
2022-10-17T23:09:44.916Z,15.30
2022-10-17T23:12:14.617Z,15.27
2022-10-17T23:14:44.552Z,16.98
2022-10-17T23:17:14.799Z,13.25
2022-10-17T23:19:46.139Z,15.93
2022-10-17T23:22:16.277Z,14.65
2022-10-17T23:24:48.993Z,20.77
2022-10-17T23:27:21.647Z,15.70
2022-10-17T23:29:51.222Z,16.42
2022-10-17T23:32:22.478Z,14.20
2022-10-17T23:34:52.178Z,16.08
2022-10-17T23:37:22.039Z,16.58
2022-10-17T23:39:54.234Z,19.85
2022-10-17T23:42:23.943Z,13.57
2022-10-17T23:44:53.851Z,13.93
2022-10-17T23:47:23.560Z,15.25
2022-10-17T23:49:53.201Z,15.25
2022-10-17T23:52:22.818Z,14.30
2022-10-17T23:54:55.077Z,16.95
2022-10-17T23:57:25.002Z,17.33
2022-10-17T23:59:55.514Z,17.02
